Time,TemperatureF,DewpointF,PressureIn,WindDirection,WindDirectionDegrees,WindSpeedMPH,WindSpeedGustMPH,Humidity,HourlyPrecipIn,Conditions,Clouds,dailyrainin,SoftwareType,DateUTC
2013-01-12 00:01:00,38.1,37.6,29.33,NW,309,4.0,5.0,98,0.00,,SKC,0.00,VWS V14.01,2013-01-12 06:01:00,
2013-01-12 00:06:00,37.9,37.4,29.32,NNE,19,0.0,8.0,98,0.00,,SKC,0.00,VWS V14.01,2013-01-12 06:06:00,
2013-01-12 00:11:00,37.7,37.2,29.32,South,173,1.0,8.0,98,0.00,,SKC,0.00,VWS V14.01,2013-01-12 06:11:00,
2013-01-12 00:16:00,37.6,37.1,29.32,South,169,0.0,8.0,98,0.00,,SKC,0.00,VWS V14.01,2013-01-12 06:16:00,
2013-01-12 00:22:00,37.5,37.0,29.32,SW,215,2.0,8.0,98,0.00,,SKC,0.00,VWS V14.01,2013-01-12 06:22:00,
2013-01-12 00:26:00,37.4,36.9,29.33,SSW,194,0.0,8.0,98,0.00,,SKC,0.00,VWS V14.01,2013-01-12 06:26:00,
2013-01-12 00:31:00,37.3,36.8,29.33,SE,134,0.0,4.0,98,0.00,,SKC,0.00,VWS V14.01,2013-01-12 06:31:00,
2013-01-12 00:37:00,37.1,36.6,29.33,SE,142,2.0,4.0,98,0.00,,SKC,0.00,VWS V14.01,2013-01-12 06:37:00,
2013-01-12 00:42:00,37.0,36.5,29.33,SW,228,0.0,5.0,98,0.00,,SKC,0.00,VWS V14.01,2013-01-12 06:42:00,
2013-01-12 00:46:00,36.9,36.1,29.33,NNE,25,0.0,7.0,97,0.00,,SKC,0.00,VWS V14.01,2013-01-12 06:46:00,
2013-01-12 00:51:00,36.8,36.0,29.33,ENE,75,0.0,7.0,97,0.00,,SKC,0.00,VWS V14.01,2013-01-12 06:51:00,
2013-01-12 00:56:00,36.8,36.3,29.33,South,186,0.0,7.0,98,0.00,,SKC,0.00,VWS V14.01,2013-01-12 06:56:00,
2013-01-12 01:01:00,36.7,36.2,29.33,East,98,2.0,4.0,98,0.01,,SKC,0.01,VWS V14.01,2013-01-12 07:01:00,
2013-01-12 01:06:00,36.5,36.0,29.33,SW,219,1.0,6.0,98,0.01,,SKC,0.01,VWS V14.01,2013-01-12 07:06:00,
2013-01-12 01:11:00,36.4,35.9,29.33,SE,136,0.0,6.0,98,0.01,,SKC,0.01,VWS V14.01,2013-01-12 07:11:00,
2013-01-12 01:16:00,36.4,35.6,29.33,West,269,0.0,6.0,97,0.01,,SKC,0.01,VWS V14.01,2013-01-12 07:16:00,
2013-01-12 01:21:00,36.3,35.5,29.33,SE,126,0.0,6.0,97,0.01,,SKC,0.01,VWS V14.01,2013-01-12 07:21:00,
2013-01-12 01:26:00,36.2,35.4,29.34,SSW,202,0.0,6.0,97,0.01,,SKC,0.01,VWS V14.01,2013-01-12 07:26:00,
2013-01-12 01:31:00,36.1,35.3,29.34,SSE,166,2.0,2.0,97,0.01,,SKC,0.01,VWS V14.01,2013-01-12 07:31:00,
2013-01-12 01:36:00,36.0,35.5,29.35,WNW,284,2.0,3.0,98,0.01,,SKC,0.01,VWS V14.01,2013-01-12 07:36:00,
2013-01-12 01:41:00,35.9,35.4,29.35,ESE,121,0.0,3.0,98,0.01,,SKC,0.01,VWS V14.01,2013-01-12 07:41:00,
2013-01-12 01:46:00,35.8,35.3,29.36,East,99,0.0,3.0,98,0.01,,SKC,0.01,VWS V14.01,2013-01-12 07:46:00,
2013-01-12 01:51:00,35.8,35.0,29.36,East,99,0.0,4.0,97,0.01,,SKC,0.01,VWS V14.01,2013-01-12 07:51:00,
2013-01-12 01:56:00,35.7,34.9,29.37,SSW,207,2.0,6.0,97,0.01,,SKC,0.01,VWS V14.01,2013-01-12 07:56:00,
2013-01-12 02:01:00,35.6,34.8,29.37,ENE,59,1.0,9.0,97,0.01,,SKC,0.01,VWS V14.01,2013-01-12 08:01:00,
2013-01-12 02:06:00,35.5,34.7,29.37,South,188,0.0,9.0,97,0.01,,SKC,0.01,VWS V14.01,2013-01-12 08:06:00,
2013-01-12 02:11:00,35.4,34.9,29.37,NNE,26,0.0,9.0,98,0.01,,SKC,0.01,VWS V14.01,2013-01-12 08:11:00,
2013-01-12 02:16:00,35.3,34.8,29.38,SE,137,0.0,9.0,98,0.01,,SKC,0.01,VWS V14.01,2013-01-12 08:16:00,
2013-01-12 02:21:00,35.1,34.3,29.38,South,183,1.0,9.0,97,0.01,,SKC,0.01,VWS V14.01,2013-01-12 08:21:00,
2013-01-12 02:26:00,34.9,34.1,29.38,West,275,7.0,9.0,97,0.01,,SKC,0.01,VWS V14.01,2013-01-12 08:26:00,
2013-01-12 02:31:00,34.8,34.0,29.38,SSE,159,0.0,7.0,97,0.00,,SKC,0.01,VWS V14.01,2013-01-12 08:31:00,
2013-01-12 02:36:00,34.6,33.8,29.38,SE,124,0.0,7.0,97,0.00,,SKC,0.01,VWS V14.01,2013-01-12 08:36:00,
2013-01-12 02:41:00,34.4,33.6,29.38,ENE,67,4.0,8.0,97,0.00,,SKC,0.01,VWS V14.01,2013-01-12 08:41:00,
2013-01-12 02:46:00,34.2,33.4,29.39,NE,49,2.0,8.0,97,0.00,,SKC,0.01,VWS V14.01,2013-01-12 08:46:00,
2013-01-12 02:51:00,33.7,32.9,29.38,SE,141,5.0,10.0,97,0.00,,SKC,0.01,VWS V14.01,2013-01-12 08:51:00,
2013-01-12 02:56:00,33.3,32.5,29.39,North,351,1.0,11.0,97,0.00,,SKC,0.01,VWS V14.01,2013-01-12 08:56:00,
2013-01-12 03:01:00,32.9,31.9,29.39,WNW,282,1.0,6.0,96,0.00,,SKC,0.01,VWS V14.01,2013-01-12 09:01:00,
2013-01-12 03:06:00,32.6,31.8,29.39,WNW,287,4.0,11.0,97,0.00,,SKC,0.01,VWS V14.01,2013-01-12 09:06:00,
2013-01-12 03:11:00,32.4,31.4,29.40,WSW,244,3.0,13.0,96,0.00,,SKC,0.01,VWS V14.01,2013-01-12 09:11:00,
2013-01-12 03:16:00,31.9,30.9,29.40,West,275,13.0,13.0,96,0.00,,SKC,0.01,VWS V14.01,2013-01-12 09:16:00,
2013-01-12 03:21:00,31.5,30.5,29.41,NNW,343,1.0,13.0,96,0.00,,SKC,0.01,VWS V14.01,2013-01-12 09:21:00,
2013-01-12 03:26:00,30.7,29.4,29.42,NW,306,2.0,18.0,95,0.00,,SKC,0.01,VWS V14.01,2013-01-12 09:26:00,
2013-01-12 03:31:00,29.8,28.3,29.42,East,99,1.0,13.0,94,0.00,,SKC,0.01,VWS V14.01,2013-01-12 09:31:00,
2013-01-12 03:36:00,29.1,27.3,29.43,West,278,4.0,14.0,93,0.00,,SKC,0.01,VWS V14.01,2013-01-12 09:36:00,
2013-01-12 03:41:00,28.4,26.4,29.43,West,278,9.0,14.0,92,0.00,,SKC,0.01,VWS V14.01,2013-01-12 09:41:00,
2013-01-12 03:46:00,27.8,25.8,29.43,West,268,8.0,14.0,92,0.00,,SKC,0.01,VWS V14.01,2013-01-12 09:46:00,
2013-01-12 03:51:00,27.2,25.2,29.43,West,279,9.0,14.0,92,0.00,,SKC,0.01,VWS V14.01,2013-01-12 09:51:00,
2013-01-12 03:56:00,26.9,25.1,29.44,West,280,2.0,14.0,93,0.00,,SKC,0.01,VWS V14.01,2013-01-12 09:56:00,
2013-01-12 04:01:00,26.5,24.5,29.45,WNW,286,4.0,12.0,92,0.00,,SKC,0.01,VWS V14.01,2013-01-12 10:01:00,
2013-01-12 04:06:00,26.0,24.0,29.45,West,267,4.0,14.0,92,0.00,,SKC,0.01,VWS V14.01,2013-01-12 10:06:00,
2013-01-12 04:11:00,25.4,22.9,29.46,SSW,198,5.0,18.0,90,0.00,,SKC,0.01,VWS V14.01,2013-01-12 10:11:00,
2013-01-12 04:16:00,24.7,22.2,29.47,NE,54,3.0,18.0,90,0.00,,SKC,0.01,VWS V14.01,2013-01-12 10:16:00,
2013-01-12 04:21:00,24.2,21.7,29.47,WSW,243,11.0,18.0,90,0.00,,SKC,0.01,VWS V14.01,2013-01-12 10:21:00,
2013-01-12 04:26:00,23.8,21.3,29.47,WNW,302,2.0,18.0,90,0.00,,SKC,0.01,VWS V14.01,2013-01-12 10:26:00,
2013-01-12 04:31:00,23.3,20.5,29.48,NW,319,6.0,18.0,89,0.00,,SKC,0.01,VWS V14.01,2013-01-12 10:31:00,
2013-01-12 04:36:00,22.9,20.1,29.49,West,263,4.0,18.0,89,0.00,,SKC,0.01,VWS V14.01,2013-01-12 10:36:00,
2013-01-12 04:41:00,22.6,19.9,29.50,NW,317,6.0,18.0,89,0.00,,SKC,0.01,VWS V14.01,2013-01-12 10:41:00,
2013-01-12 04:46:00,22.3,19.6,29.50,NE,46,2.0,18.0,89,0.00,,SKC,0.01,VWS V14.01,2013-01-12 10:46:00,
2013-01-12 04:51:00,22.1,19.6,29.50,WSW,242,12.0,18.0,90,0.00,,SKC,0.01,VWS V14.01,2013-01-12 10:51:00,
2013-01-12 04:56:00,21.6,18.3,29.51,WNW,296,4.0,18.0,87,0.00,,SKC,0.01,VWS V14.01,2013-01-12 10:56:00,
2013-01-12 05:01:00,21.1,17.8,29.52,West,262,18.0,18.0,87,0.00,,SKC,0.01,VWS V14.01,2013-01-12 11:01:00,
2013-01-12 05:06:00,20.8,17.5,29.52,West,280,4.0,18.0,87,0.00,,SKC,0.01,VWS V14.01,2013-01-12 11:06:00,
2013-01-12 05:11:00,20.4,16.6,29.53,South,182,1.0,18.0,85,0.00,,SKC,0.01,VWS V14.01,2013-01-12 11:11:00,
2013-01-12 05:16:00,20.1,16.3,29.53,WSW,239,3.0,18.0,85,0.00,,SKC,0.01,VWS V14.01,2013-01-12 11:16:00,
2013-01-12 05:21:00,19.8,16.0,29.54,SW,233,11.0,18.0,85,0.00,,SKC,0.01,VWS V14.01,2013-01-12 11:21:00,
2013-01-12 05:26:00,19.5,16.0,29.54,NNW,327,2.0,18.0,86,0.00,,SKC,0.01,VWS V14.01,2013-01-12 11:26:00,
2013-01-12 05:31:00,19.3,16.1,29.55,SSE,161,7.0,7.0,87,0.00,,SKC,0.01,VWS V14.01,2013-01-12 11:31:00,
2013-01-12 05:36:00,19.1,15.9,29.56,SSW,205,12.0,18.0,87,0.00,,SKC,0.01,VWS V14.01,2013-01-12 11:36:00,
2013-01-12 05:41:00,18.8,15.1,29.56,WSW,248,6.0,21.0,85,0.00,,SKC,0.01,VWS V14.01,2013-01-12 11:41:00,
2013-01-12 05:46:00,18.4,14.6,29.56,WSW,238,14.0,21.0,85,0.00,,SKC,0.01,VWS V14.01,2013-01-12 11:46:00,
2013-01-12 05:51:00,18.2,14.5,29.57,WSW,242,11.0,21.0,85,0.00,,SKC,0.01,VWS V14.01,2013-01-12 11:51:00,
2013-01-12 05:56:00,18.1,14.9,29.57,West,269,3.0,21.0,87,0.00,,SKC,0.01,VWS V14.01,2013-01-12 11:56:00,
2013-01-12 06:01:00,18.0,14.8,29.58,West,278,4.0,7.0,87,0.00,,SKC,0.01,VWS V14.01,2013-01-12 12:01:00,
2013-01-12 06:06:00,17.9,14.4,29.58,NW,308,8.0,11.0,86,0.00,,SKC,0.01,VWS V14.01,2013-01-12 12:06:00,
2013-01-12 06:11:00,17.6,13.9,29.59,SW,227,7.0,14.0,85,0.00,,SKC,0.01,VWS V14.01,2013-01-12 12:11:00,
2013-01-12 06:16:00,17.4,13.7,29.60,NNW,340,0.0,14.0,85,0.00,,SKC,0.01,VWS V14.01,2013-01-12 12:16:00,
2013-01-12 06:21:00,17.2,13.2,29.60,NW,315,4.0,18.0,84,0.00,,SKC,0.01,VWS V14.01,2013-01-12 12:21:00,
2013-01-12 06:26:00,17.2,13.5,29.60,WSW,257,7.0,21.0,85,0.00,,SKC,0.01,VWS V14.01,2013-01-12 12:26:00,
2013-01-12 06:31:00,17.1,13.1,29.61,West,271,12.0,19.0,84,0.00,,SKC,0.01,VWS V14.01,2013-01-12 12:31:00,
2013-01-12 06:36:00,17.0,13.0,29.62,SW,221,7.0,19.0,84,0.00,,SKC,0.01,VWS V14.01,2013-01-12 12:36:00,
2013-01-12 06:41:00,17.0,13.0,29.62,NW,305,5.0,19.0,84,0.00,,SKC,0.01,VWS V14.01,2013-01-12 12:41:00,
2013-01-12 06:46:00,17.0,13.3,29.62,WNW,284,1.0,19.0,85,0.00,,SKC,0.01,VWS V14.01,2013-01-12 12:46:00,
2013-01-12 06:51:00,16.9,12.9,29.63,WSW,238,3.0,19.0,84,0.00,,SKC,0.01,VWS V14.01,2013-01-12 12:51:00,
2013-01-12 06:56:00,16.8,12.5,29.63,West,261,2.0,19.0,83,0.00,,SKC,0.01,VWS V14.01,2013-01-12 12:56:00,
2013-01-12 07:01:00,16.8,12.8,29.64,West,259,4.0,10.0,84,0.00,,SKC,0.01,VWS V14.01,2013-01-12 13:01:00,
2013-01-12 07:06:00,16.7,12.2,29.65,WNW,294,14.0,14.0,82,0.00,,SKC,0.01,VWS V14.01,2013-01-12 13:06:00,
2013-01-12 07:11:00,16.6,12.1,29.65,West,278,13.0,18.0,82,0.00,,SKC,0.01,VWS V14.01,2013-01-12 13:11:00,
2013-01-12 07:16:00,16.5,12.0,29.65,West,270,2.0,18.0,82,0.00,,SKC,0.01,VWS V14.01,2013-01-12 13:16:00,
2013-01-12 07:21:00,16.4,12.1,29.66,West,265,6.0,18.0,83,0.00,,SKC,0.01,VWS V14.01,2013-01-12 13:21:00,
2013-01-12 07:26:00,16.2,11.7,29.66,NNW,335,5.0,18.0,82,0.00,,SKC,0.01,VWS V14.01,2013-01-12 13:26:00,
2013-01-12 07:31:00,16.1,11.6,29.67,North,351,8.0,14.0,82,0.00,,SKC,0.01,VWS V14.01,2013-01-12 13:31:00,
2013-01-12 07:36:00,16.1,11.6,29.68,SW,219,5.0,14.0,82,0.00,,SKC,0.01,VWS V14.01,2013-01-12 13:36:00,
2013-01-12 07:41:00,15.9,11.4,29.69,NNW,346,4.0,14.0,82,0.00,,SKC,0.01,VWS V14.01,2013-01-12 13:41:00,
2013-01-12 07:46:00,15.8,11.0,29.69,NW,313,2.0,17.0,81,0.00,,SKC,0.01,VWS V14.01,2013-01-12 13:46:00,
2013-01-12 07:51:00,15.7,10.9,29.70,West,274,5.0,17.0,81,0.00,,SKC,0.01,VWS V14.01,2013-01-12 13:51:00,
2013-01-12 07:56:00,15.7,11.2,29.70,West,268,3.0,17.0,82,0.00,,SKC,0.01,VWS V14.01,2013-01-12 13:56:00,
2013-01-12 08:01:00,15.6,10.8,29.70,West,265,6.0,14.0,81,0.00,,SKC,0.01,VWS V14.01,2013-01-12 14:01:00,
2013-01-12 08:06:00,15.4,10.4,29.71,West,275,6.0,14.0,80,0.00,,SKC,0.01,VWS V14.01,2013-01-12 14:06:00,
2013-01-12 08:11:00,15.2,10.1,29.71,West,275,14.0,17.0,80,0.00,,SKC,0.01,VWS V14.01,2013-01-12 14:11:00,
2013-01-12 08:16:00,15.0,10.0,29.72,West,278,5.0,17.0,80,0.00,,SKC,0.01,VWS V14.01,2013-01-12 14:16:00,
2013-01-12 08:21:00,14.8,9.8,29.72,NW,304,2.0,17.0,80,0.00,,SKC,0.01,VWS V14.01,2013-01-12 14:21:00,
2013-01-12 08:26:00,14.8,10.0,29.73,WSW,246,5.0,17.0,81,0.00,,SKC,0.01,VWS V14.01,2013-01-12 14:26:00,
2013-01-12 08:31:00,14.8,10.0,29.72,NNE,18,3.0,9.0,81,0.00,,SKC,0.01,VWS V14.01,2013-01-12 14:31:00,
2013-01-12 08:36:00,14.8,10.0,29.73,SW,234,4.0,11.0,81,0.00,,SKC,0.01,VWS V14.01,2013-01-12 14:36:00,
2013-01-12 08:41:00,14.8,10.0,29.74,WNW,292,7.0,11.0,81,0.00,,SKC,0.01,VWS V14.01,2013-01-12 14:41:00,
2013-01-12 08:46:00,14.7,9.7,29.74,NW,304,5.0,11.0,80,0.00,,SKC,0.01,VWS V14.01,2013-01-12 14:46:00,
2013-01-12 08:51:00,14.6,9.6,29.75,NW,322,5.0,13.0,80,0.00,,SKC,0.01,VWS V14.01,2013-01-12 14:51:00,
2013-01-12 08:56:00,14.5,9.5,29.75,WNW,300,9.0,19.0,80,0.00,,SKC,0.01,VWS V14.01,2013-01-12 14:56:00,
2013-01-12 09:01:00,14.3,9.3,29.75,WSW,254,6.0,11.0,80,0.00,,SKC,0.01,VWS V14.01,2013-01-12 15:01:00,
2013-01-12 09:06:00,14.3,9.6,29.75,West,267,4.0,11.0,81,0.00,,SKC,0.01,VWS V14.01,2013-01-12 15:06:00,
2013-01-12 09:11:00,14.2,9.2,29.76,SW,229,1.0,11.0,80,0.00,,SKC,0.01,VWS V14.01,2013-01-12 15:11:00,
2013-01-12 09:16:00,14.2,8.9,29.76,SSW,208,3.0,12.0,79,0.00,,SKC,0.01,VWS V14.01,2013-01-12 15:16:00,
2013-01-12 09:21:00,14.3,9.3,29.76,NNW,331,4.0,12.0,80,0.00,,SKC,0.01,VWS V14.01,2013-01-12 15:21:00,
2013-01-12 09:26:00,14.4,9.1,29.76,WSW,238,2.0,12.0,79,0.00,,SKC,0.01,VWS V14.01,2013-01-12 15:26:00,
2013-01-12 09:31:00,14.2,8.3,29.77,NNW,332,2.0,15.0,77,0.00,,SKC,0.01,VWS V14.01,2013-01-12 15:31:00,
2013-01-12 09:36:00,13.9,8.0,29.77,NW,304,6.0,15.0,77,0.00,,SKC,0.01,VWS V14.01,2013-01-12 15:36:00,
2013-01-12 09:41:00,13.7,7.8,29.78,West,271,8.0,15.0,77,0.00,,SKC,0.01,VWS V14.01,2013-01-12 15:41:00,
2013-01-12 09:46:00,13.7,8.1,29.78,WNW,285,9.0,15.0,78,0.00,,SKC,0.01,VWS V14.01,2013-01-12 15:46:00,
2013-01-12 09:51:00,13.9,8.6,29.79,WSW,242,5.0,15.0,79,0.00,,SKC,0.01,VWS V14.01,2013-01-12 15:51:00,
2013-01-12 09:56:00,13.9,8.0,29.79,West,265,7.0,15.0,77,0.00,,SKC,0.01,VWS V14.01,2013-01-12 15:56:00,
2013-01-12 10:01:00,13.9,8.0,29.79,WNW,301,7.0,13.0,77,0.00,,SKC,0.01,VWS V14.01,2013-01-12 16:01:00,
2013-01-12 10:06:00,13.8,7.9,29.80,West,273,4.0,13.0,77,0.00,,SKC,0.01,VWS V14.01,2013-01-12 16:06:00,
2013-01-12 10:11:00,13.8,7.9,29.80,SW,232,0.0,13.0,77,0.00,,SKC,0.01,VWS V14.01,2013-01-12 16:11:00,
2013-01-12 10:16:00,14.1,8.5,29.80,West,273,4.0,13.0,78,0.00,,SKC,0.01,VWS V14.01,2013-01-12 16:16:00,
2013-01-12 10:21:00,14.4,8.5,29.81,SSW,200,9.0,13.0,77,0.00,,SKC,0.01,VWS V14.01,2013-01-12 16:21:00,
2013-01-12 10:26:00,14.5,8.3,29.81,South,178,6.0,13.0,76,0.00,,SKC,0.01,VWS V14.01,2013-01-12 16:26:00,
2013-01-12 10:31:00,14.4,8.2,29.81,WSW,238,8.0,11.0,76,0.00,,SKC,0.01,VWS V14.01,2013-01-12 16:31:00,
2013-01-12 10:36:00,14.3,7.8,29.82,WNW,302,6.0,11.0,75,0.00,,SKC,0.01,VWS V14.01,2013-01-12 16:36:00,
2013-01-12 10:41:00,14.2,7.7,29.83,SSW,206,0.0,16.0,75,0.00,,SKC,0.01,VWS V14.01,2013-01-12 16:41:00,
2013-01-12 10:46:00,14.1,7.9,29.83,WSW,242,7.0,16.0,76,0.00,,SKC,0.01,VWS V14.01,2013-01-12 16:46:00,
2013-01-12 10:51:00,14.1,7.9,29.83,West,274,2.0,16.0,76,0.00,,SKC,0.01,VWS V14.01,2013-01-12 16:51:00,
2013-01-12 10:56:00,14.1,8.2,29.84,South,191,0.0,16.0,77,0.00,,SKC,0.01,VWS V14.01,2013-01-12 16:56:00,
2013-01-12 11:01:00,14.2,8.0,29.84,North,350,1.0,7.0,76,0.00,,SKC,0.01,VWS V14.01,2013-01-12 17:01:00,
2013-01-12 11:06:00,14.3,8.1,29.84,WNW,290,12.0,15.0,76,0.00,,SKC,0.01,VWS V14.01,2013-01-12 17:06:00,
2013-01-12 11:11:00,14.2,8.0,29.84,WNW,297,5.0,17.0,76,0.00,,SKC,0.01,VWS V14.01,2013-01-12 17:11:00,
2013-01-12 11:16:00,14.3,8.1,29.84,West,271,8.0,17.0,76,0.00,,SKC,0.01,VWS V14.01,2013-01-12 17:16:00,
2013-01-12 11:21:00,14.6,8.4,29.84,West,273,1.0,17.0,76,0.00,,SKC,0.01,VWS V14.01,2013-01-12 17:21:00,
2013-01-12 11:26:00,14.8,8.6,29.84,NW,313,5.0,17.0,76,0.00,,SKC,0.01,VWS V14.01,2013-01-12 17:26:00,
2013-01-12 11:31:00,14.6,8.1,29.85,WSW,252,6.0,11.0,75,0.00,,SKC,0.01,VWS V14.01,2013-01-12 17:31:00,
2013-01-12 11:36:00,14.3,7.8,29.84,South,185,8.0,11.0,75,0.00,,SKC,0.01,VWS V14.01,2013-01-12 17:36:00,
2013-01-12 11:41:00,14.3,7.6,29.85,West,261,5.0,11.0,74,0.00,,SKC,0.01,VWS V14.01,2013-01-12 17:41:00,
2013-01-12 11:46:00,14.1,7.3,29.85,West,274,6.0,12.0,74,0.00,,SKC,0.01,VWS V14.01,2013-01-12 17:46:00,
2013-01-12 11:51:00,14.0,7.6,29.85,West,274,4.0,13.0,75,0.00,,SKC,0.01,VWS V14.01,2013-01-12 17:51:00,
2013-01-12 11:56:00,13.7,7.0,29.85,West,262,10.0,13.0,74,0.00,,SKC,0.01,VWS V14.01,2013-01-12 17:56:00,
2013-01-12 12:01:00,13.5,7.1,29.85,WSW,253,8.0,10.0,75,0.00,,SKC,0.01,VWS V14.01,2013-01-12 18:01:00,
2013-01-12 12:06:00,13.5,7.1,29.85,SSW,213,4.0,14.0,75,0.00,,SKC,0.01,VWS V14.01,2013-01-12 18:06:00,
2013-01-12 12:11:00,13.8,7.1,29.85,West,281,2.0,14.0,74,0.00,,SKC,0.01,VWS V14.01,2013-01-12 18:11:00,
2013-01-12 12:16:00,14.2,7.4,29.85,WSW,255,4.0,14.0,74,0.00,,SKC,0.01,VWS V14.01,2013-01-12 18:16:00,
2013-01-12 12:21:00,14.3,7.6,29.85,SE,132,1.0,14.0,74,0.00,,SKC,0.01,VWS V14.01,2013-01-12 18:21:00,
2013-01-12 12:26:00,14.4,7.3,29.86,WSW,249,4.0,14.0,73,0.00,,SKC,0.01,VWS V14.01,2013-01-12 18:26:00,
2013-01-12 12:31:00,14.1,6.8,29.86,West,271,5.0,12.0,72,0.00,,SKC,0.01,VWS V14.01,2013-01-12 18:31:00,
2013-01-12 12:36:00,14.2,7.7,29.86,NW,306,4.0,12.0,75,0.00,,SKC,0.01,VWS V14.01,2013-01-12 18:36:00,
2013-01-12 12:41:00,14.2,6.8,29.86,West,279,7.0,12.0,72,0.00,,SKC,0.01,VWS V14.01,2013-01-12 18:41:00,
2013-01-12 12:46:00,14.1,7.1,29.86,WSW,253,6.0,14.0,73,0.00,,SKC,0.01,VWS V14.01,2013-01-12 18:46:00,
2013-01-12 12:51:00,13.8,6.5,29.87,NW,311,4.0,14.0,72,0.00,,SKC,0.01,VWS V14.01,2013-01-12 18:51:00,
2013-01-12 12:56:00,13.6,6.3,29.86,SW,219,4.0,14.0,72,0.00,,SKC,0.01,VWS V14.01,2013-01-12 18:56:00,
2013-01-12 13:01:00,13.7,6.7,29.87,NW,318,4.0,8.0,73,0.00,,SKC,0.01,VWS V14.01,2013-01-12 19:01:00,
2013-01-12 13:06:00,14.2,7.2,29.87,West,260,0.0,8.0,73,0.00,,SKC,0.01,VWS V14.01,2013-01-12 19:06:00,
2013-01-12 13:11:00,14.8,7.7,29.87,NW,305,4.0,8.0,73,0.00,,SKC,0.01,VWS V14.01,2013-01-12 19:11:00,
2013-01-12 13:16:00,14.8,7.1,29.87,West,263,4.0,9.0,71,0.00,,SKC,0.01,VWS V14.01,2013-01-12 19:16:00,
2013-01-12 13:21:00,14.5,6.8,29.88,WSW,257,4.0,9.0,71,0.00,,SKC,0.01,VWS V14.01,2013-01-12 19:21:00,
2013-01-12 13:26:00,14.4,7.0,29.88,WNW,282,5.0,11.0,72,0.00,,SKC,0.01,VWS V14.01,2013-01-12 19:26:00,
2013-01-12 13:31:00,14.5,7.4,29.88,West,263,1.0,6.0,73,0.00,,SKC,0.01,VWS V14.01,2013-01-12 19:31:00,
2013-01-12 13:36:00,14.6,7.2,29.88,SW,228,1.0,9.0,72,0.00,,SKC,0.01,VWS V14.01,2013-01-12 19:36:00,
2013-01-12 13:41:00,14.6,6.9,29.89,WNW,293,4.0,13.0,71,0.00,,SKC,0.01,VWS V14.01,2013-01-12 19:41:00,
2013-01-12 13:46:00,14.6,7.2,29.90,NNW,328,8.0,13.0,72,0.00,,SKC,0.01,VWS V14.01,2013-01-12 19:46:00,
2013-01-12 13:51:00,14.7,7.0,29.90,WSW,252,5.0,13.0,71,0.00,,SKC,0.01,VWS V14.01,2013-01-12 19:51:00,
2013-01-12 13:56:00,14.5,6.5,29.91,WNW,300,4.0,13.0,70,0.00,,SKC,0.01,VWS V14.01,2013-01-12 19:56:00,
2013-01-12 14:01:00,14.1,6.4,29.92,NW,309,1.0,7.0,71,0.00,,SKC,0.01,VWS V14.01,2013-01-12 20:01:00,
2013-01-12 14:06:00,13.8,6.2,29.92,West,267,1.0,8.0,71,0.00,,SKC,0.01,VWS V14.01,2013-01-12 20:06:00,
2013-01-12 14:11:00,13.5,5.9,29.92,WNW,282,4.0,9.0,71,0.00,,SKC,0.01,VWS V14.01,2013-01-12 20:11:00,
2013-01-12 14:16:00,13.2,5.6,29.93,WNW,290,6.0,11.0,71,0.00,,SKC,0.01,VWS V14.01,2013-01-12 20:16:00,
2013-01-12 14:21:00,13.3,6.0,29.93,WSW,249,3.0,12.0,72,0.00,,SKC,0.01,VWS V14.01,2013-01-12 20:21:00,
2013-01-12 14:26:00,13.3,6.3,29.93,North,360,1.0,12.0,73,0.00,,SKC,0.01,VWS V14.01,2013-01-12 20:26:00,
2013-01-12 14:31:00,13.3,6.0,29.93,WSW,242,2.0,9.0,72,0.00,,SKC,0.01,VWS V14.01,2013-01-12 20:31:00,
2013-01-12 14:36:00,13.2,5.9,29.93,WSW,247,0.0,11.0,72,0.00,,SKC,0.01,VWS V14.01,2013-01-12 20:36:00,
2013-01-12 14:41:00,13.0,5.4,29.94,WNW,287,4.0,12.0,71,0.00,,SKC,0.01,VWS V14.01,2013-01-12 20:41:00,
2013-01-12 14:46:00,12.7,5.1,29.94,WSW,246,5.0,14.0,71,0.00,,SKC,0.01,VWS V14.01,2013-01-12 20:46:00,
2013-01-12 14:51:00,12.5,4.9,29.94,WNW,283,2.0,14.0,71,0.00,,SKC,0.01,VWS V14.01,2013-01-12 20:51:00,
2013-01-12 14:56:00,12.5,4.9,29.94,WSW,240,4.0,14.0,71,0.00,,SKC,0.01,VWS V14.01,2013-01-12 20:56:00,
2013-01-12 15:01:00,12.4,5.1,29.94,SW,226,2.0,10.0,72,0.00,,SKC,0.01,VWS V14.01,2013-01-12 21:01:00,
2013-01-12 15:06:00,12.4,5.4,29.94,WSW,255,5.0,10.0,73,0.00,,SKC,0.01,VWS V14.01,2013-01-12 21:06:00,
2013-01-12 15:11:00,12.4,5.1,29.94,West,270,5.0,11.0,72,0.00,,SKC,0.01,VWS V14.01,2013-01-12 21:11:00,
2013-01-12 15:16:00,12.2,4.9,29.94,SSW,196,4.0,12.0,72,0.00,,SKC,0.01,VWS V14.01,2013-01-12 21:16:00,
2013-01-12 15:21:00,12.1,4.8,29.95,WNW,284,4.0,12.0,72,0.00,,SKC,0.01,VWS V14.01,2013-01-12 21:21:00,
2013-01-12 15:26:00,12.0,5.0,29.94,WSW,256,0.0,12.0,73,0.00,,SKC,0.01,VWS V14.01,2013-01-12 21:26:00,
2013-01-12 15:31:00,12.0,5.0,29.95,West,274,5.0,8.0,73,0.00,,SKC,0.01,VWS V14.01,2013-01-12 21:31:00,
2013-01-12 15:36:00,11.8,4.5,29.95,West,273,2.0,8.0,72,0.00,,SKC,0.01,VWS V14.01,2013-01-12 21:36:00,
2013-01-12 15:41:00,11.5,4.2,29.96,WNW,296,0.0,8.0,72,0.00,,SKC,0.01,VWS V14.01,2013-01-12 21:41:00,
2013-01-12 15:46:00,11.4,4.7,29.96,WNW,297,0.0,8.0,74,0.00,,SKC,0.01,VWS V14.01,2013-01-12 21:46:00,
2013-01-12 15:51:00,11.4,4.7,29.96,West,264,0.0,8.0,74,0.00,,SKC,0.01,VWS V14.01,2013-01-12 21:51:00,
2013-01-12 15:56:00,11.4,4.7,29.96,West,265,2.0,8.0,74,0.00,,SKC,0.01,VWS V14.01,2013-01-12 21:56:00,
2013-01-12 16:01:00,11.4,4.4,29.97,WNW,289,2.0,4.0,73,0.00,,SKC,0.01,VWS V14.01,2013-01-12 22:01:00,
2013-01-12 16:06:00,11.2,4.0,29.96,WNW,291,2.0,11.0,72,0.00,,SKC,0.01,VWS V14.01,2013-01-12 22:06:00,
2013-01-12 16:11:00,11.0,3.8,29.97,WNW,300,4.0,11.0,72,0.00,,SKC,0.01,VWS V14.01,2013-01-12 22:11:00,
2013-01-12 16:16:00,10.8,3.6,29.96,WSW,244,7.0,11.0,72,0.00,,SKC,0.01,VWS V14.01,2013-01-12 22:16:00,
2013-01-12 16:21:00,10.8,3.9,29.96,SSW,209,3.0,11.0,73,0.00,,SKC,0.01,VWS V14.01,2013-01-12 22:21:00,
2013-01-12 16:26:00,10.7,3.8,29.96,WSW,254,7.0,11.0,73,0.00,,SKC,0.01,VWS V14.01,2013-01-12 22:26:00,
2013-01-12 16:31:00,10.6,3.7,29.96,NNW,331,2.0,5.0,73,0.00,,SKC,0.01,VWS V14.01,2013-01-12 22:31:00,
2013-01-12 16:36:00,10.5,3.3,29.96,West,279,0.0,7.0,72,0.00,,SKC,0.01,VWS V14.01,2013-01-12 22:36:00,
2013-01-12 16:41:00,10.5,3.6,29.96,WSW,242,0.0,7.0,73,0.00,,SKC,0.01,VWS V14.01,2013-01-12 22:41:00,
2013-01-12 16:46:00,10.3,3.4,29.96,NW,313,2.0,11.0,73,0.00,,SKC,0.01,VWS V14.01,2013-01-12 22:46:00,
2013-01-12 16:51:00,10.3,3.7,29.97,SW,234,2.0,11.0,74,0.00,,SKC,0.01,VWS V14.01,2013-01-12 22:51:00,
2013-01-12 16:56:00,10.2,3.6,29.97,West,269,2.0,11.0,74,0.00,,SKC,0.01,VWS V14.01,2013-01-12 22:56:00,
2013-01-12 17:01:00,10.1,3.8,29.98,SW,226,3.0,3.0,75,0.00,,SKC,0.01,VWS V14.01,2013-01-12 23:01:00,
2013-01-12 17:06:00,10.1,3.8,29.99,WSW,251,1.0,5.0,75,0.00,,SKC,0.01,VWS V14.01,2013-01-12 23:06:00,
2013-01-12 17:11:00,10.1,3.8,29.99,WSW,245,3.0,10.0,75,0.00,,SKC,0.01,VWS V14.01,2013-01-12 23:11:00,
2013-01-12 17:16:00,10.0,3.7,29.99,West,269,1.0,10.0,75,0.00,,SKC,0.01,VWS V14.01,2013-01-12 23:16:00,
2013-01-12 17:21:00,9.9,3.6,29.99,West,271,1.0,10.0,75,0.00,,SKC,0.01,VWS V14.01,2013-01-12 23:21:00,
2013-01-12 17:26:00,9.9,3.9,29.99,West,262,1.0,10.0,76,0.00,,SKC,0.01,VWS V14.01,2013-01-12 23:26:00,
2013-01-12 17:31:00,9.8,3.8,30.00,West,268,0.0,4.0,76,0.00,,SKC,0.01,VWS V14.01,2013-01-12 23:31:00,
2013-01-12 17:36:00,9.7,3.7,30.00,NW,313,0.0,4.0,76,0.00,,SKC,0.01,VWS V14.01,2013-01-12 23:36:00,
2013-01-12 17:41:00,9.6,3.6,30.00,West,271,1.0,7.0,76,0.00,,SKC,0.01,VWS V14.01,2013-01-12 23:41:00,
2013-01-12 17:46:00,9.6,3.6,30.01,West,268,0.0,7.0,76,0.00,,SKC,0.01,VWS V14.01,2013-01-12 23:46:00,
2013-01-12 17:51:00,9.5,3.5,30.02,WSW,258,2.0,7.0,76,0.00,,SKC,0.01,VWS V14.01,2013-01-12 23:51:00,
2013-01-12 17:56:00,9.4,3.4,30.02,SW,232,0.0,7.0,76,0.00,,SKC,0.01,VWS V14.01,2013-01-12 23:56:00,
2013-01-12 18:01:00,9.4,3.4,30.01,SW,235,1.0,4.0,76,0.00,,SKC,0.01,VWS V14.01,2013-01-13 00:01:00,
2013-01-12 18:06:00,9.4,3.4,30.02,WSW,243,6.0,11.0,76,0.00,,SKC,0.01,VWS V14.01,2013-01-13 00:06:00,
2013-01-12 18:11:00,9.2,2.9,30.01,West,264,1.0,11.0,75,0.00,,SKC,0.01,VWS V14.01,2013-01-13 00:11:00,
2013-01-12 18:16:00,9.2,3.2,30.02,West,279,4.0,11.0,76,0.00,,SKC,0.01,VWS V14.01,2013-01-13 00:16:00,
2013-01-12 18:21:00,9.1,2.8,30.02,WSW,240,3.0,11.0,75,0.00,,SKC,0.01,VWS V14.01,2013-01-13 00:21:00,
2013-01-12 18:26:00,9.0,2.7,30.02,West,265,0.0,11.0,75,0.00,,SKC,0.01,VWS V14.01,2013-01-13 00:26:00,
2013-01-12 18:31:00,8.9,2.9,30.02,West,271,2.0,3.0,76,0.00,,SKC,0.01,VWS V14.01,2013-01-13 00:31:00,
2013-01-12 18:36:00,8.8,2.8,30.02,WSW,255,1.0,8.0,76,0.00,,SKC,0.01,VWS V14.01,2013-01-13 00:36:00,
2013-01-12 18:41:00,8.7,2.7,30.01,WSW,253,0.0,8.0,76,0.00,,SKC,0.01,VWS V14.01,2013-01-13 00:41:00,
2013-01-12 18:46:00,8.6,2.3,30.02,WSW,252,2.0,8.0,75,0.00,,SKC,0.01,VWS V14.01,2013-01-13 00:46:00,
2013-01-12 18:51:00,8.5,2.5,30.01,SSW,210,3.0,8.0,76,0.00,,SKC,0.01,VWS V14.01,2013-01-13 00:51:00,
2013-01-12 18:56:00,8.4,2.4,30.01,WSW,257,4.0,8.0,76,0.00,,SKC,0.01,VWS V14.01,2013-01-13 00:56:00,
2013-01-12 19:01:00,8.3,2.3,30.01,SW,233,0.0,2.0,76,0.00,,SKC,0.01,VWS V14.01,2013-01-13 01:01:00,
2013-01-12 19:06:00,8.2,2.2,30.01,SSW,198,0.0,2.0,76,0.00,,SKC,0.01,VWS V14.01,2013-01-13 01:06:00,
2013-01-12 19:11:00,8.1,2.4,30.02,WSW,246,1.0,6.0,77,0.00,,SKC,0.01,VWS V14.01,2013-01-13 01:11:00,
2013-01-12 19:16:00,8.0,2.3,30.02,SW,229,4.0,6.0,77,0.00,,SKC,0.01,VWS V14.01,2013-01-13 01:16:00,
2013-01-12 19:21:00,7.9,2.2,30.02,West,277,2.0,7.0,77,0.00,,SKC,0.01,VWS V14.01,2013-01-13 01:21:00,
2013-01-12 19:26:00,7.9,2.2,30.03,West,278,0.0,8.0,77,0.00,,SKC,0.01,VWS V14.01,2013-01-13 01:26:00,
2013-01-12 19:31:00,7.8,2.1,30.03,West,275,4.0,4.0,77,0.00,,SKC,0.01,VWS V14.01,2013-01-13 01:31:00,
2013-01-12 19:36:00,7.7,2.0,30.03,WNW,284,0.0,5.0,77,0.00,,SKC,0.01,VWS V14.01,2013-01-13 01:36:00,
2013-01-12 19:41:00,7.6,1.9,30.02,WSW,240,1.0,5.0,77,0.00,,SKC,0.01,VWS V14.01,2013-01-13 01:41:00,
2013-01-12 19:46:00,7.6,1.9,30.02,SW,233,2.0,5.0,77,0.00,,SKC,0.01,VWS V14.01,2013-01-13 01:46:00,
2013-01-12 19:51:00,7.5,1.8,30.02,WNW,298,2.0,5.0,77,0.00,,SKC,0.01,VWS V14.01,2013-01-13 01:51:00,
2013-01-12 19:56:00,7.4,2.0,30.03,West,265,4.0,5.0,78,0.00,,SKC,0.01,VWS V14.01,2013-01-13 01:56:00,
2013-01-12 20:01:00,7.3,1.9,30.03,West,266,1.0,4.0,78,0.00,,SKC,0.01,VWS V14.01,2013-01-13 02:01:00,
2013-01-12 20:06:00,7.2,1.8,30.04,West,267,1.0,4.0,78,0.00,,SKC,0.01,VWS V14.01,2013-01-13 02:06:00,
2013-01-12 20:11:00,7.1,1.7,30.03,SW,219,0.0,4.0,78,0.00,,SKC,0.01,VWS V14.01,2013-01-13 02:11:00,
2013-01-12 20:16:00,7.0,1.9,30.05,SW,235,1.0,4.0,79,0.00,,SKC,0.01,VWS V14.01,2013-01-13 02:16:00,
2013-01-12 20:21:00,6.9,1.8,30.05,WSW,246,1.0,4.0,79,0.00,,SKC,0.01,VWS V14.01,2013-01-13 02:21:00,
2013-01-12 20:26:00,6.9,1.8,30.05,NW,305,0.0,5.0,79,0.00,,SKC,0.01,VWS V14.01,2013-01-13 02:26:00,
2013-01-12 20:31:00,6.8,1.7,30.05,NW,305,0.0,1.0,79,0.00,,SKC,0.01,VWS V14.01,2013-01-13 02:31:00,
2013-01-12 20:36:00,6.7,1.6,30.04,West,274,1.0,4.0,79,0.00,,SKC,0.01,VWS V14.01,2013-01-13 02:36:00,
2013-01-12 20:41:00,6.7,1.6,30.04,WNW,293,1.0,4.0,79,0.00,,SKC,0.01,VWS V14.01,2013-01-13 02:41:00,
2013-01-12 20:46:00,6.6,1.5,30.05,NW,304,0.0,4.0,79,0.00,,SKC,0.01,VWS V14.01,2013-01-13 02:46:00,
2013-01-12 20:51:00,6.5,1.7,30.06,West,272,2.0,4.0,80,0.00,,SKC,0.01,VWS V14.01,2013-01-13 02:51:00,
2013-01-12 20:56:00,6.5,1.7,30.06,NW,306,1.0,5.0,80,0.00,,SKC,0.01,VWS V14.01,2013-01-13 02:56:00,
2013-01-12 21:01:00,6.4,1.6,30.04,West,273,2.0,5.0,80,0.00,,SKC,0.01,VWS V14.01,2013-01-13 03:01:00,
2013-01-12 21:06:00,6.3,1.5,30.04,WNW,287,4.0,5.0,80,0.00,,SKC,0.01,VWS V14.01,2013-01-13 03:06:00,
2013-01-12 21:11:00,6.3,1.5,30.06,West,263,0.0,6.0,80,0.00,,SKC,0.01,VWS V14.01,2013-01-13 03:11:00,
2013-01-12 21:16:00,6.3,1.5,30.06,WSW,258,0.0,6.0,80,0.00,,SKC,0.01,VWS V14.01,2013-01-13 03:16:00,
2013-01-12 21:21:00,6.2,1.1,30.07,WSW,243,0.0,6.0,79,0.00,,SKC,0.01,VWS V14.01,2013-01-13 03:21:00,
2013-01-12 21:26:00,6.2,1.1,30.07,West,261,0.0,6.0,79,0.00,,SKC,0.01,VWS V14.01,2013-01-13 03:26:00,
2013-01-12 21:31:00,6.1,1.0,30.08,WNW,301,0.0,0.0,79,0.00,,SKC,0.01,VWS V14.01,2013-01-13 03:31:00,
2013-01-12 21:36:00,6.0,0.9,30.07,WSW,239,0.0,2.0,79,0.00,,SKC,0.01,VWS V14.01,2013-01-13 03:36:00,
2013-01-12 21:41:00,5.9,1.1,30.08,SW,235,0.0,4.0,80,0.00,,SKC,0.01,VWS V14.01,2013-01-13 03:41:00,
2013-01-12 21:46:00,5.9,1.1,30.07,WSW,250,1.0,4.0,80,0.00,,SKC,0.01,VWS V14.01,2013-01-13 03:46:00,
2013-01-12 21:51:00,5.8,1.0,30.07,NW,308,0.0,5.0,80,0.00,,SKC,0.01,VWS V14.01,2013-01-13 03:51:00,
2013-01-12 21:56:00,5.7,0.9,30.07,West,274,0.0,5.0,80,0.00,,SKC,0.01,VWS V14.01,2013-01-13 03:56:00,
2013-01-12 22:01:00,5.6,0.8,30.07,West,275,1.0,2.0,80,0.00,,SKC,0.01,VWS V14.01,2013-01-13 04:01:00,
2013-01-12 22:06:00,5.5,0.4,30.07,WSW,238,4.0,4.0,79,0.00,,SKC,0.01,VWS V14.01,2013-01-13 04:06:00,
2013-01-12 22:11:00,5.4,0.6,30.06,West,275,2.0,4.0,80,0.00,,SKC,0.01,VWS V14.01,2013-01-13 04:11:00,
2013-01-12 22:16:00,5.2,0.1,30.06,West,276,2.0,4.0,79,0.00,,SKC,0.01,VWS V14.01,2013-01-13 04:16:00,
2013-01-12 22:21:00,5.2,0.4,30.06,West,270,1.0,4.0,80,0.00,,SKC,0.01,VWS V14.01,2013-01-13 04:21:00,
2013-01-12 22:26:00,5.0,0.2,30.07,SW,236,0.0,4.0,80,0.00,,SKC,0.01,VWS V14.01,2013-01-13 04:26:00,
2013-01-12 22:31:00,5.0,0.2,30.07,West,263,0.0,2.0,80,0.00,,SKC,0.01,VWS V14.01,2013-01-13 04:31:00,
2013-01-12 22:36:00,4.9,0.1,30.06,WSW,251,0.0,2.0,80,0.00,,SKC,0.01,VWS V14.01,2013-01-13 04:36:00,
2013-01-12 22:41:00,4.7,-0.1,30.07,WSW,251,0.0,2.0,80,0.00,,SKC,0.01,VWS V14.01,2013-01-13 04:41:00,
2013-01-12 22:46:00,4.6,0.1,30.07,WSW,251,0.0,3.0,81,0.00,,SKC,0.01,VWS V14.01,2013-01-13 04:46:00,
2013-01-12 22:51:00,4.6,0.1,30.07,WSW,251,0.0,3.0,81,0.00,,SKC,0.01,VWS V14.01,2013-01-13 04:51:00,
2013-01-12 22:56:00,4.5,0.0,30.08,WSW,251,1.0,3.0,81,0.00,,SKC,0.01,VWS V14.01,2013-01-13 04:56:00,
2013-01-12 23:00:00,4.4,-0.1,30.06,WSW,251,0.0,0.0,81,0.00,,SKC,0.01,VWS V14.01,2013-01-13 05:00:00,
2013-01-12 23:01:00,4.4,-0.1,30.07,WSW,251,0.0,0.0,81,0.00,,SKC,0.01,VWS V14.01,2013-01-13 05:01:00,
2013-01-12 23:03:00,4.4,-0.1,30.07,WSW,251,0.0,0.0,81,0.00,,SKC,0.01,VWS V14.01,2013-01-13 05:03:00,
2013-01-12 23:08:00,4.3,-0.2,30.07,WSW,251,0.0,2.0,81,0.00,,SKC,0.01,VWS V14.01,2013-01-13 05:08:00,
2013-01-12 23:13:00,4.2,-0.3,30.07,WSW,251,0.0,2.0,81,0.00,,SKC,0.01,VWS V14.01,2013-01-13 05:13:00,
2013-01-12 23:18:00,4.2,-0.1,30.07,WSW,251,0.0,2.0,82,0.00,,SKC,0.01,VWS V14.01,2013-01-13 05:18:00,
2013-01-12 23:23:00,4.1,-0.2,30.08,WSW,251,0.0,2.0,82,0.00,,SKC,0.01,VWS V14.01,2013-01-13 05:23:00,
2013-01-12 23:28:00,4.1,-0.2,30.07,WSW,251,0.0,2.0,82,0.00,,SKC,0.01,VWS V14.01,2013-01-13 05:28:00,
2013-01-12 23:33:00,4.1,-0.2,30.08,WSW,251,0.0,2.0,82,0.00,,SKC,0.01,VWS V14.01,2013-01-13 05:33:00,
2013-01-12 23:38:00,4.1,-0.2,30.08,SW,234,0.0,4.0,82,0.00,,SKC,0.01,VWS V14.01,2013-01-13 05:38:00,
2013-01-12 23:43:00,4.1,-0.2,30.06,WSW,257,1.0,4.0,82,0.00,,SKC,0.01,VWS V14.01,2013-01-13 05:43:00,
2013-01-12 23:48:00,4.1,-0.2,30.07,WSW,257,0.0,4.0,82,0.00,,SKC,0.01,VWS V14.01,2013-01-13 05:48:00,
2013-01-12 23:53:00,4.1,-0.2,30.07,WSW,257,0.0,4.0,82,0.00,,SKC,0.01,VWS V14.01,2013-01-13 05:53:00,
2013-01-12 23:58:00,4.1,-0.2,30.07,WSW,257,0.0,4.0,82,0.00,,SKC,0.01,VWS V14.01,2013-01-13 05:58:00,